createdAt,value
2023-02-23T00:02:11.182Z,0.41
2023-02-23T00:04:39.080Z,0.42
2023-02-23T00:07:07.069Z,0.42
2023-02-23T00:09:37.956Z,0.40
2023-02-23T00:12:09.973Z,0.38
2023-02-23T00:14:38.538Z,0.34
2023-02-23T00:17:14.853Z,0.30
2023-02-23T00:19:46.283Z,0.29
2023-02-23T00:22:14.244Z,0.30
2023-02-23T00:24:47.471Z,0.31
2023-02-23T00:27:19.211Z,0.30
2023-02-23T00:29:49.744Z,0.29
2023-02-23T00:32:21.795Z,0.27
2023-02-23T00:34:52.465Z,0.27
2023-02-23T00:41:35.235Z,0.30
2023-02-23T00:44:03.527Z,0.27
2023-02-23T00:46:31.477Z,0.25
2023-02-23T00:49:00.285Z,0.21
2023-02-23T00:51:32.058Z,0.20
2023-02-23T00:54:00.676Z,0.21
2023-02-23T00:56:28.662Z,0.22
2023-02-23T00:58:56.918Z,0.21
2023-02-23T01:01:27.668Z,0.18
2023-02-23T01:03:55.691Z,0.15
2023-02-23T01:06:24.398Z,0.12
2023-02-23T01:08:57.177Z,0.11
2023-02-23T01:11:33.650Z,0.10
2023-02-23T01:14:02.367Z,0.11
2023-02-23T01:16:32.863Z,0.10
2023-02-23T01:19:03.958Z,0.08
2023-02-23T01:21:35.135Z,0.06
2023-02-23T01:24:04.421Z,0.06
2023-02-23T01:26:38.144Z,0.05
2023-02-23T01:29:08.944Z,0.07
2023-02-23T01:31:40.278Z,0.07
2023-02-23T01:34:12.071Z,0.05
2023-02-23T01:36:41.770Z,0.03
2023-02-23T01:39:14.484Z,0.00
2023-02-23T01:41:43.415Z,0.00
2023-02-23T01:44:14.286Z,0.01
2023-02-23T01:46:46.712Z,0.00
2023-02-23T01:49:21.659Z,-0.02
2023-02-23T01:51:58.846Z,-0.06
2023-02-23T01:54:31.494Z,-0.06
2023-02-23T01:57:03.178Z,-0.05
2023-02-23T01:59:41.435Z,-0.03
2023-02-23T02:02:09.601Z,-0.04
2023-02-23T02:04:46.071Z,-0.06
2023-02-23T02:07:21.569Z,-0.10
2023-02-23T02:10:10.972Z,-0.10
2023-02-23T02:12:45.223Z,-0.10
2023-02-23T02:15:17.811Z,-0.13
2023-02-23T02:18:09.382Z,-0.17
2023-02-23T02:20:50.571Z,-0.20
2023-02-23T02:23:48.960Z,-0.21
2023-02-23T02:26:46.246Z,-0.19
2023-02-23T02:29:44.943Z,-0.21
2023-02-23T02:32:22.011Z,-0.24
2023-02-23T02:35:00.505Z,-0.26
2023-02-23T02:37:50.860Z,-0.27
2023-02-23T02:40:37.811Z,-0.27
2023-02-23T02:43:23.011Z,-0.24
2023-02-23T02:45:57.220Z,-0.27
2023-02-23T02:48:46.456Z,-0.32
2023-02-23T02:51:42.586Z,-0.36
2023-02-23T02:54:30.412Z,-0.36
2023-02-23T02:57:02.115Z,-0.35
2023-02-23T02:59:49.142Z,-0.33
2023-02-23T03:02:39.167Z,-0.34
2023-02-23T03:05:40.234Z,-0.38
2023-02-23T03:08:49.959Z,-0.43
2023-02-23T03:11:37.244Z,-0.45
2023-02-23T03:14:51.830Z,-0.44
2023-02-23T03:17:56.427Z,-0.46
2023-02-23T03:21:08.933Z,-0.49
2023-02-23T03:23:59.311Z,-0.54
2023-02-23T03:26:55.833Z,-0.57
2023-02-23T03:29:57.368Z,-0.55
2023-02-23T03:32:50.342Z,-0.56
2023-02-23T03:35:47.912Z,-0.57
2023-02-23T03:38:44.869Z,-0.62
2023-02-23T03:41:33.476Z,-0.63
2023-02-23T03:44:25.888Z,-0.64
2023-02-23T03:47:13.379Z,-0.65
2023-02-23T03:50:01.920Z,-0.67
2023-02-23T03:52:54.904Z,-0.70
2023-02-23T03:55:46.524Z,-0.73
2023-02-23T03:58:36.964Z,-0.72
2023-02-23T04:01:27.302Z,-0.72
2023-02-23T04:04:16.113Z,-0.73
2023-02-23T04:07:05.485Z,-0.76
2023-02-23T04:09:52.444Z,-0.79
2023-02-23T04:12:41.451Z,-0.78
2023-02-23T04:15:27.836Z,-0.77
2023-02-23T04:17:56.272Z,-0.77
2023-02-23T04:20:27.092Z,-0.77
2023-02-23T04:22:55.055Z,-0.80
2023-02-23T04:25:23.073Z,-0.83
2023-02-23T04:27:51.217Z,-0.85
2023-02-23T04:30:20.735Z,-0.83
2023-02-23T04:32:48.880Z,-0.81
2023-02-23T04:35:16.820Z,-0.82
2023-02-23T04:37:44.706Z,-0.83
2023-02-23T04:40:13.238Z,-0.87
2023-02-23T04:42:41.860Z,-0.88
2023-02-23T04:45:10.731Z,-0.88
2023-02-23T04:47:38.660Z,-0.85
2023-02-23T04:50:07.036Z,-0.86
2023-02-23T04:52:35.189Z,-0.88
2023-02-23T04:55:04.366Z,-0.92
2023-02-23T04:57:32.358Z,-0.93
2023-02-23T05:00:00.282Z,-0.92
2023-02-23T05:02:28.236Z,-0.92
2023-02-23T05:04:56.423Z,-0.91
2023-02-23T05:07:24.643Z,-0.95
2023-02-23T05:09:52.815Z,-0.98
2023-02-23T05:12:21.026Z,-0.97
2023-02-23T05:14:49.222Z,-0.96
2023-02-23T05:17:17.174Z,-0.93
2023-02-23T05:19:45.126Z,-0.90
2023-02-23T05:22:13.305Z,-0.90
2023-02-23T05:24:42.113Z,-0.95
2023-02-23T05:27:11.405Z,-0.96
2023-02-23T05:29:39.761Z,-1.00
2023-02-23T05:32:08.264Z,-1.00
2023-02-23T05:34:37.518Z,-0.98
2023-02-23T05:37:05.868Z,-0.96
2023-02-23T05:39:33.822Z,-0.94
2023-02-23T05:42:01.886Z,-0.92
2023-02-23T05:44:29.935Z,-0.94
2023-02-23T05:46:57.872Z,-0.95
2023-02-23T05:49:25.815Z,-0.96
2023-02-23T05:51:53.750Z,-0.94
2023-02-23T05:54:21.828Z,-0.90
2023-02-23T05:56:50.089Z,-0.88
2023-02-23T05:59:18.211Z,-0.87
2023-02-23T06:01:46.533Z,-0.88
2023-02-23T06:04:14.589Z,-0.88
2023-02-23T06:06:42.518Z,-0.84
2023-02-23T06:09:10.432Z,-0.81
2023-02-23T06:11:38.344Z,-0.77
2023-02-23T06:14:06.251Z,-0.74
2023-02-23T06:16:34.396Z,-0.73
2023-02-23T06:19:02.442Z,-0.72
2023-02-23T06:21:31.043Z,-0.68
2023-02-23T06:24:00.794Z,-0.65
2023-02-23T06:26:29.307Z,-0.63
2023-02-23T06:28:57.284Z,-0.61
2023-02-23T06:31:25.395Z,-0.60
2023-02-23T06:33:53.342Z,-0.58
2023-02-23T06:36:21.928Z,-0.50
2023-02-23T06:38:50.097Z,-0.42
2023-02-23T06:41:18.309Z,-0.38
2023-02-23T06:43:46.348Z,-0.35
2023-02-23T06:46:14.222Z,-0.33
2023-02-23T06:48:42.103Z,-0.31
2023-02-23T06:51:10.074Z,-0.25
2023-02-23T06:53:38.100Z,-0.17
2023-02-23T06:56:06.506Z,-0.11
2023-02-23T06:58:34.384Z,-0.06
2023-02-23T07:01:02.504Z,-0.02
2023-02-23T07:03:30.367Z,0.00
2023-02-23T07:05:58.357Z,0.06
2023-02-23T07:08:26.531Z,0.16
2023-02-23T07:10:54.490Z,0.22
2023-02-23T07:13:22.456Z,0.31
2023-02-23T07:15:50.952Z,0.36
2023-02-23T07:18:19.291Z,0.39
2023-02-23T07:20:47.226Z,0.42
2023-02-23T07:23:15.262Z,0.51
2023-02-23T07:25:43.186Z,0.61
2023-02-23T07:28:14.302Z,0.69
2023-02-23T07:30:42.656Z,0.76
2023-02-23T07:33:12.109Z,0.80
2023-02-23T07:35:40.173Z,0.86
2023-02-23T07:38:08.240Z,0.88
2023-02-23T07:40:36.162Z,0.94
2023-02-23T07:43:04.135Z,0.98
2023-02-23T07:45:32.242Z,1.05
2023-02-23T07:48:00.944Z,1.13
2023-02-23T07:50:28.943Z,1.19
2023-02-23T07:52:57.090Z,1.25
2023-02-23T07:55:24.993Z,1.31
2023-02-23T07:57:53.336Z,1.39
2023-02-23T08:00:21.766Z,1.47
2023-02-23T08:02:49.716Z,1.53
2023-02-23T08:05:18.208Z,1.64
2023-02-23T08:07:46.477Z,1.74
2023-02-23T08:10:14.520Z,1.80
2023-02-23T08:12:42.673Z,1.88
2023-02-23T08:15:11.171Z,1.98
2023-02-23T08:17:39.633Z,2.06
2023-02-23T08:20:08.982Z,2.16
2023-02-23T08:22:48.542Z,2.24
2023-02-23T08:25:18.423Z,2.37
2023-02-23T08:27:47.136Z,2.48
2023-02-23T08:30:15.589Z,2.60
2023-02-23T08:32:43.567Z,2.69
2023-02-23T08:35:12.088Z,2.74
2023-02-23T08:37:41.993Z,2.75
2023-02-23T08:40:12.287Z,2.72
2023-02-23T08:42:40.254Z,2.70
2023-02-23T08:45:13.468Z,2.69
2023-02-23T08:47:42.181Z,2.75
2023-02-23T08:50:11.807Z,2.81
2023-02-23T08:52:40.513Z,2.88
2023-02-23T08:55:11.727Z,2.95
2023-02-23T08:57:39.776Z,3.03
2023-02-23T09:00:14.279Z,3.18
2023-02-23T09:02:44.317Z,3.26
2023-02-23T09:05:12.809Z,3.30
2023-02-23T09:07:45.072Z,3.39
2023-02-23T09:10:25.051Z,3.52
2023-02-23T09:12:53.316Z,3.61
2023-02-23T09:15:22.251Z,3.65
2023-02-23T09:17:50.436Z,3.63
2023-02-23T09:20:18.758Z,3.65
2023-02-23T09:22:49.729Z,3.69
2023-02-23T09:25:22.912Z,3.71
2023-02-23T09:27:57.120Z,3.82
2023-02-23T09:30:26.536Z,4.00
2023-02-23T09:32:55.952Z,4.12
2023-02-23T09:35:25.289Z,4.16
2023-02-23T09:37:56.083Z,4.24
2023-02-23T09:40:28.208Z,4.38
2023-02-23T09:43:05.181Z,4.48
2023-02-23T09:45:33.109Z,4.55
2023-02-23T09:48:04.046Z,4.60
2023-02-23T09:50:34.994Z,4.68
2023-02-23T09:53:06.734Z,4.79
2023-02-23T09:55:35.564Z,4.85
2023-02-23T09:58:16.936Z,4.92
2023-02-23T10:00:50.474Z,4.99
2023-02-23T10:03:28.261Z,5.07
2023-02-23T10:06:01.752Z,5.21
2023-02-23T10:08:58.702Z,5.37
2023-02-23T10:11:47.900Z,5.60
2023-02-23T10:15:06.725Z,5.76
2023-02-23T10:18:17.806Z,5.84
2023-02-23T10:21:31.966Z,5.86
2023-02-23T10:25:06.803Z,5.97
2023-02-23T10:28:21.980Z,6.17
2023-02-23T10:30:50.622Z,6.33
2023-02-23T10:33:36.333Z,6.42
2023-02-23T10:36:31.374Z,6.54
2023-02-23T10:38:59.677Z,6.63
2023-02-23T10:41:27.746Z,6.72
2023-02-23T10:43:57.122Z,6.84
2023-02-23T10:46:35.921Z,6.95
2023-02-23T10:49:04.758Z,7.08
2023-02-23T10:51:37.978Z,7.19
2023-02-23T10:54:44.835Z,7.26
2023-02-23T10:57:34.061Z,7.34
2023-02-23T11:00:20.407Z,7.37
2023-02-23T11:02:48.893Z,7.48
2023-02-23T11:05:33.868Z,7.53
2023-02-23T11:08:21.177Z,7.57
2023-02-23T11:11:17.472Z,7.54
2023-02-23T11:13:50.549Z,7.61
2023-02-23T11:16:38.013Z,7.69
2023-02-23T11:19:19.741Z,7.78
2023-02-23T11:21:52.039Z,7.81
2023-02-23T11:24:30.812Z,7.80
2023-02-23T11:27:06.870Z,7.80
2023-02-23T11:29:39.541Z,7.84
2023-02-23T11:32:15.434Z,7.84
2023-02-23T11:34:43.974Z,7.84
2023-02-23T11:37:15.330Z,7.87
2023-02-23T11:39:57.949Z,7.92
2023-02-23T11:42:33.409Z,7.97
2023-02-23T11:45:03.485Z,8.00
2023-02-23T11:47:35.242Z,8.01
2023-02-23T11:50:05.025Z,8.03
2023-02-23T11:52:36.542Z,8.08
2023-02-23T11:55:16.297Z,8.08
2023-02-23T11:57:44.252Z,8.10
2023-02-23T12:04:39.287Z,8.15
2023-02-23T12:07:31.536Z,8.17
2023-02-23T12:10:11.588Z,8.25
2023-02-23T12:13:08.586Z,8.37
2023-02-23T12:16:05.547Z,8.52
2023-02-23T12:18:56.880Z,8.60
2023-02-23T12:21:33.329Z,8.65
2023-02-23T12:24:15.013Z,8.74
2023-02-23T12:26:51.795Z,8.83
2023-02-23T12:29:36.611Z,8.88
2023-02-23T12:32:37.364Z,8.93
2023-02-23T12:35:14.942Z,9.00
2023-02-23T12:38:01.306Z,9.05
2023-02-23T12:40:34.583Z,9.14
2023-02-23T12:43:12.108Z,9.18
2023-02-23T12:45:49.235Z,9.24
2023-02-23T12:48:32.283Z,9.29
2023-02-23T12:51:04.671Z,9.40
2023-02-23T12:53:45.151Z,9.52
2023-02-23T12:56:21.403Z,9.67
2023-02-23T12:59:08.679Z,9.72
2023-02-23T13:01:46.066Z,9.70
2023-02-23T13:04:25.879Z,10.06
2023-02-23T13:06:59.542Z,10.34
2023-02-23T13:09:55.756Z,10.73
2023-02-23T13:12:42.314Z,11.07
2023-02-23T13:15:22.288Z,11.32
2023-02-23T13:17:56.879Z,11.48
2023-02-23T13:20:37.456Z,11.49
2023-02-23T13:23:23.588Z,11.68
2023-02-23T13:26:10.775Z,11.93
2023-02-23T13:28:44.835Z,12.02
2023-02-23T13:31:33.655Z,12.06
2023-02-23T13:34:05.067Z,12.13
2023-02-23T13:36:34.849Z,12.23
2023-02-23T13:39:29.174Z,12.24
2023-02-23T13:42:19.923Z,12.18
2023-02-23T13:44:57.131Z,12.06
2023-02-23T13:47:34.967Z,11.97
2023-02-23T13:50:46.723Z,11.89
2023-02-23T13:53:39.669Z,11.75
2023-02-23T13:56:19.757Z,11.78
2023-02-23T13:59:09.941Z,11.80
2023-02-23T14:01:40.707Z,11.59
2023-02-23T14:04:16.075Z,11.36
2023-02-23T14:06:53.995Z,11.27
2023-02-23T14:09:54.029Z,11.30
2023-02-23T14:12:32.841Z,11.20
2023-02-23T14:15:25.701Z,11.01
2023-02-23T14:17:59.188Z,10.76
2023-02-23T14:20:46.403Z,10.83
2023-02-23T14:23:20.390Z,10.81
2023-02-23T14:25:52.434Z,10.84
2023-02-23T14:28:30.853Z,10.96
2023-02-23T14:31:13.840Z,10.83
2023-02-23T14:33:41.934Z,10.80
2023-02-23T14:36:21.734Z,10.66
2023-02-23T14:39:02.386Z,10.47
2023-02-23T14:41:51.880Z,10.23
2023-02-23T14:44:36.588Z,9.80
2023-02-23T14:47:08.723Z,9.37
2023-02-23T14:49:49.008Z,9.03
2023-02-23T14:52:46.488Z,8.77
2023-02-23T14:55:25.649Z,8.52
2023-02-23T14:57:54.752Z,8.29
2023-02-23T15:00:34.182Z,8.13
2023-02-23T15:03:12.505Z,7.99
2023-02-23T15:05:52.702Z,7.86
2023-02-23T15:08:23.963Z,7.75
2023-02-23T15:11:11.047Z,7.65
2023-02-23T15:13:42.729Z,7.51
2023-02-23T15:16:26.991Z,7.40
2023-02-23T15:18:55.531Z,7.34
2023-02-23T15:21:24.187Z,7.29
2023-02-23T15:24:03.188Z,7.25
2023-02-23T15:26:35.880Z,7.20
2023-02-23T15:29:10.212Z,7.16
2023-02-23T15:31:41.219Z,7.12
2023-02-23T15:34:12.467Z,7.07
2023-02-23T15:36:41.436Z,7.00
2023-02-23T15:39:17.560Z,6.90
2023-02-23T15:41:49.034Z,6.83
2023-02-23T15:44:42.390Z,6.76
2023-02-23T15:47:22.580Z,6.70
2023-02-23T15:49:50.655Z,6.62
2023-02-23T15:52:24.937Z,6.56
2023-02-23T15:55:00.394Z,6.53
2023-02-23T15:57:47.289Z,6.52
2023-02-23T16:00:27.318Z,6.51
2023-02-23T16:02:57.185Z,6.47
2023-02-23T16:05:25.884Z,6.42
2023-02-23T16:08:23.055Z,6.37
2023-02-23T16:11:00.774Z,6.30
2023-02-23T16:13:28.998Z,6.24
2023-02-23T16:15:57.614Z,6.19
2023-02-23T16:18:39.436Z,6.13
2023-02-23T16:21:14.619Z,6.08
2023-02-23T16:23:47.887Z,6.07
2023-02-23T16:26:41.827Z,6.06
2023-02-23T16:29:18.638Z,6.04
2023-02-23T16:31:58.181Z,6.00
2023-02-23T16:34:30.236Z,5.97
2023-02-23T16:37:00.391Z,5.92
2023-02-23T16:39:31.234Z,5.89
2023-02-23T16:42:00.166Z,5.85
2023-02-23T16:44:37.767Z,5.85
2023-02-23T16:47:27.629Z,5.88
2023-02-23T16:49:55.571Z,5.91
2023-02-23T16:52:24.390Z,5.89
2023-02-23T16:54:55.674Z,5.87
2023-02-23T16:57:27.435Z,5.83
2023-02-23T16:59:57.612Z,5.80
2023-02-23T17:02:25.872Z,5.77
2023-02-23T17:04:58.916Z,5.77
2023-02-23T17:07:26.918Z,5.79
2023-02-23T17:09:55.050Z,5.79
2023-02-23T17:12:22.972Z,5.80
2023-02-23T17:14:55.237Z,5.81
2023-02-23T17:17:23.122Z,5.79
2023-02-23T17:19:51.482Z,5.78
2023-02-23T17:22:19.386Z,5.77
2023-02-23T17:24:47.383Z,5.75
2023-02-23T17:27:15.282Z,5.75
2023-02-23T17:29:43.323Z,5.76
2023-02-23T17:32:11.401Z,5.80
2023-02-23T17:34:39.591Z,5.81
2023-02-23T17:37:08.060Z,5.84
2023-02-23T17:39:37.499Z,5.85
2023-02-23T17:42:06.698Z,5.87
2023-02-23T17:44:34.696Z,5.89
2023-02-23T17:47:02.690Z,5.91
2023-02-23T17:49:31.864Z,5.97
2023-02-23T17:51:59.819Z,6.05
2023-02-23T17:54:28.228Z,6.11
2023-02-23T17:56:56.469Z,6.14
2023-02-23T17:59:24.792Z,6.15
2023-02-23T18:01:53.279Z,6.15
2023-02-23T18:04:21.370Z,6.14
2023-02-23T18:06:49.300Z,6.15
2023-02-23T18:09:17.197Z,6.16
2023-02-23T18:11:46.083Z,6.19
2023-02-23T18:14:14.796Z,6.23
2023-02-23T18:16:42.829Z,6.27
2023-02-23T18:19:10.750Z,6.32
2023-02-23T18:21:41.003Z,6.35
2023-02-23T18:24:08.976Z,6.37
2023-02-23T18:26:37.642Z,6.39
2023-02-23T18:29:06.455Z,6.40
2023-02-23T18:31:35.030Z,6.41
2023-02-23T18:34:03.214Z,6.41
2023-02-23T18:36:53.626Z,6.42
2023-02-23T18:40:24.007Z,6.37
2023-02-23T18:42:52.161Z,6.40
2023-02-23T18:45:20.157Z,6.39
2023-02-23T18:47:48.128Z,6.40
2023-02-23T18:50:19.397Z,6.39
2023-02-23T18:52:50.878Z,6.39
2023-02-23T18:55:20.232Z,6.36
2023-02-23T18:57:49.457Z,6.32
2023-02-23T19:00:18.342Z,6.28
2023-02-23T19:02:46.698Z,6.25
2023-02-23T19:05:18.495Z,6.20
2023-02-23T19:07:48.058Z,6.18
2023-02-23T19:10:16.473Z,6.15
2023-02-23T19:12:44.569Z,6.13
2023-02-23T19:15:12.738Z,6.13
2023-02-23T19:17:40.802Z,6.12
2023-02-23T19:20:13.309Z,6.10
2023-02-23T19:22:41.826Z,6.08
2023-02-23T19:25:14.742Z,6.07
2023-02-23T19:27:43.428Z,6.02
2023-02-23T19:30:12.307Z,6.01
2023-02-23T19:37:04.557Z,6.07
2023-02-23T19:39:33.102Z,6.03
2023-02-23T19:42:01.036Z,6.02
2023-02-23T19:44:29.893Z,6.07
2023-02-23T19:46:57.815Z,6.12
2023-02-23T19:49:25.953Z,6.17
2023-02-23T19:51:54.013Z,6.22
2023-02-23T19:54:22.020Z,6.26
2023-02-23T19:56:50.027Z,6.31
2023-02-23T19:59:18.373Z,6.37
2023-02-23T20:01:46.770Z,6.41
2023-02-23T20:04:14.759Z,6.41
2023-02-23T20:06:44.991Z,6.41
2023-02-23T20:09:14.073Z,6.43
2023-02-23T20:11:42.706Z,6.44
2023-02-23T20:14:12.599Z,6.45
2023-02-23T20:16:41.031Z,6.44
2023-02-23T20:19:09.344Z,6.44
2023-02-23T20:21:37.797Z,6.46
2023-02-23T20:24:06.015Z,6.50
2023-02-23T20:26:37.142Z,6.47
2023-02-23T20:29:10.961Z,6.48
2023-02-23T20:31:42.049Z,6.52
2023-02-23T20:34:11.277Z,6.54
2023-02-23T20:36:40.162Z,6.55
2023-02-23T20:39:10.419Z,6.54
2023-02-23T20:41:43.477Z,6.56
2023-02-23T20:44:14.290Z,6.59
2023-02-23T20:46:44.778Z,6.65
2023-02-23T20:49:14.034Z,6.71
2023-02-23T20:51:43.921Z,6.76
2023-02-23T20:54:13.274Z,6.80
2023-02-23T20:56:42.730Z,6.85
2023-02-23T20:59:11.843Z,6.88
2023-02-23T21:01:41.560Z,6.92
2023-02-23T21:04:10.448Z,6.95
2023-02-23T21:06:38.526Z,6.97
2023-02-23T21:09:12.204Z,7.02
2023-02-23T21:11:40.250Z,7.08
2023-02-23T21:14:08.514Z,7.13
2023-02-23T21:16:40.933Z,7.17
2023-02-23T21:19:10.932Z,7.19
2023-02-23T21:21:40.788Z,7.19
2023-02-23T21:24:09.282Z,7.19
2023-02-23T21:26:37.264Z,7.18
2023-02-23T21:29:11.765Z,7.15
2023-02-23T21:31:40.084Z,7.11
2023-02-23T21:34:09.149Z,7.07
2023-02-23T21:36:37.279Z,7.02
2023-02-23T21:39:06.746Z,7.03
2023-02-23T21:41:34.952Z,7.06
2023-02-23T21:44:05.541Z,7.09
2023-02-23T21:46:36.629Z,7.11
2023-02-23T21:49:09.722Z,7.08
2023-02-23T21:51:38.903Z,7.07
2023-02-23T21:54:06.859Z,7.04
2023-02-23T21:56:35.095Z,6.96
2023-02-23T21:59:04.986Z,6.83
2023-02-23T22:01:35.409Z,6.73
2023-02-23T22:04:06.999Z,6.74
2023-02-23T22:06:40.034Z,6.75
2023-02-23T22:09:12.737Z,6.63
2023-02-23T22:11:45.169Z,6.57
2023-02-23T22:14:16.881Z,6.57
2023-02-23T22:16:45.938Z,6.53
2023-02-23T22:19:13.937Z,6.49
2023-02-23T22:21:42.649Z,6.49
2023-02-23T22:24:12.556Z,6.52
2023-02-23T22:26:54.177Z,6.54
2023-02-23T22:29:24.487Z,6.57
2023-02-23T22:31:52.925Z,6.59
2023-02-23T22:34:21.286Z,6.63
2023-02-23T22:36:50.116Z,6.61
2023-02-23T22:39:18.839Z,6.56
2023-02-23T22:41:48.076Z,6.52
2023-02-23T22:44:20.111Z,6.48
2023-02-23T22:46:48.689Z,6.45
2023-02-23T22:49:19.927Z,6.46
2023-02-23T22:51:48.207Z,6.37
2023-02-23T22:54:17.506Z,6.30
2023-02-23T22:56:46.959Z,6.25
2023-02-23T22:59:17.710Z,6.20
2023-02-23T23:01:47.573Z,6.17
2023-02-23T23:04:15.719Z,6.19
2023-02-23T23:06:43.861Z,6.23
2023-02-23T23:09:12.606Z,6.27
2023-02-23T23:11:44.443Z,6.29
2023-02-23T23:14:12.786Z,6.31
2023-02-23T23:16:48.378Z,6.31
2023-02-23T23:19:23.924Z,6.31
2023-02-23T23:21:55.555Z,6.31
2023-02-23T23:24:24.774Z,6.34
2023-02-23T23:26:55.648Z,6.36
2023-02-23T23:29:25.866Z,6.39
2023-02-23T23:31:57.034Z,6.42
2023-02-23T23:34:25.499Z,6.43
2023-02-23T23:36:53.597Z,6.44
2023-02-23T23:39:23.609Z,6.44
2023-02-23T23:41:51.508Z,6.44
2023-02-23T23:44:22.073Z,6.44
2023-02-23T23:46:53.352Z,6.50
2023-02-23T23:49:25.600Z,6.54
2023-02-23T23:51:58.799Z,6.59
2023-02-23T23:54:31.053Z,6.60
2023-02-23T23:57:03.760Z,6.59
2023-02-23T23:59:33.747Z,6.62
